createdAt,value
2019-06-26T04:01:14.776Z,99.90
2019-06-26T04:02:20.445Z,99.90
2019-06-26T04:03:25.507Z,99.90
2019-06-26T04:04:31.096Z,99.90
2019-06-26T04:05:36.160Z,99.90
2019-06-26T04:06:41.844Z,99.90
2019-06-26T04:07:46.943Z,99.60
2019-06-26T04:08:52.670Z,99.30
2019-06-26T04:09:57.813Z,98.70
2019-06-26T04:11:04.558Z,98.40
2019-06-26T04:12:09.675Z,98.00
2019-06-26T04:13:15.376Z,97.50
2019-06-26T04:14:20.471Z,97.10
2019-06-26T04:15:40.788Z,96.80
2019-06-26T04:16:33.013Z,96.40
2019-06-26T04:17:38.678Z,96.00
2019-06-26T04:18:43.731Z,95.80
2019-06-26T04:19:49.465Z,95.20
2019-06-26T04:20:54.524Z,94.80
2019-06-26T04:22:00.232Z,94.50
2019-06-26T04:23:05.244Z,94.10
2019-06-26T04:24:10.906Z,93.80
2019-06-26T04:25:16.128Z,93.50
2019-06-26T04:26:21.821Z,93.10
2019-06-26T04:27:27.068Z,92.90
2019-06-26T04:28:32.894Z,92.60
2019-06-26T04:29:38.050Z,92.20
2019-06-26T04:30:43.834Z,91.90
2019-06-26T04:31:48.938Z,91.50
2019-06-26T04:32:54.592Z,91.00
2019-06-26T04:33:59.617Z,90.60
2019-06-26T04:35:05.392Z,90.20
2019-06-26T04:36:10.420Z,89.60
2019-06-26T04:37:16.129Z,88.80
2019-06-26T04:38:21.261Z,88.10
2019-06-26T04:39:26.975Z,87.20
2019-06-26T04:40:32.149Z,86.60
2019-06-26T04:41:37.920Z,85.60
2019-06-26T04:42:42.952Z,84.50
2019-06-26T04:43:48.611Z,83.70
2019-06-26T04:44:53.805Z,82.50
2019-06-26T04:45:59.479Z,81.90
2019-06-26T04:47:04.608Z,81.00
2019-06-26T04:48:10.313Z,79.80
2019-06-26T04:49:15.400Z,79.00
2019-06-26T04:50:21.912Z,78.00
2019-06-26T04:51:27.044Z,77.50
2019-06-26T04:52:32.662Z,76.00
2019-06-26T04:53:37.852Z,75.30
2019-06-26T04:54:43.551Z,74.40
2019-06-26T04:55:48.615Z,73.30
2019-06-26T04:56:54.351Z,72.20
2019-06-26T04:57:59.435Z,71.60
2019-06-26T04:59:05.025Z,70.80
2019-06-26T05:00:11.521Z,70.00
2019-06-26T05:01:17.210Z,69.00
2019-06-26T05:02:22.288Z,68.20
2019-06-26T05:03:27.973Z,67.10
2019-06-26T05:04:32.960Z,65.70
2019-06-26T05:05:40.152Z,64.70
2019-06-26T05:06:45.385Z,64.50
2019-06-26T05:07:53.569Z,63.90
2019-06-26T05:08:57.691Z,62.90
2019-06-26T05:10:03.381Z,62.20
2019-06-26T05:11:08.417Z,61.80
2019-06-26T05:12:14.050Z,60.90
2019-06-26T05:13:19.189Z,60.40
2019-06-26T05:14:24.859Z,59.30
2019-06-26T05:15:29.965Z,58.30
2019-06-26T05:16:35.551Z,57.90
2019-06-26T05:17:40.816Z,57.20
2019-06-26T05:18:46.436Z,56.30
2019-06-26T05:19:51.533Z,54.80
2019-06-26T05:20:57.243Z,54.90
2019-06-26T05:22:02.326Z,54.70
2019-06-26T05:23:07.930Z,54.10
2019-06-26T05:24:14.305Z,54.40
2019-06-26T05:25:20.055Z,54.60
2019-06-26T05:26:25.037Z,53.80
2019-06-26T05:27:30.739Z,52.20
2019-06-26T05:28:36.918Z,52.00
2019-06-26T05:29:42.540Z,51.20
2019-06-26T05:30:47.618Z,50.90
2019-06-26T05:31:53.363Z,49.30
2019-06-26T05:32:58.380Z,49.10
2019-06-26T05:34:04.168Z,49.90
2019-06-26T05:35:10.678Z,48.30
2019-06-26T05:36:16.525Z,48.20
2019-06-26T05:37:21.568Z,47.90
2019-06-26T05:38:27.382Z,47.00
2019-06-26T05:39:32.472Z,46.20
2019-06-26T05:40:38.084Z,45.30
2019-06-26T05:41:43.095Z,45.30
2019-06-26T05:42:48.824Z,45.30
2019-06-26T05:43:54.072Z,44.80
2019-06-26T05:44:59.749Z,45.50
2019-06-26T05:46:04.942Z,44.70
2019-06-26T05:47:10.653Z,44.20
2019-06-26T05:48:16.057Z,44.40
2019-06-26T05:49:22.613Z,43.50
2019-06-26T05:50:27.947Z,43.00
2019-06-26T05:51:33.616Z,41.50
2019-06-26T05:52:42.218Z,41.20
2019-06-26T05:53:46.148Z,41.10
2019-06-26T05:54:51.272Z,41.20
2019-06-26T05:55:56.867Z,41.70
2019-06-26T05:57:01.913Z,41.80
2019-06-26T05:58:08.012Z,41.60
2019-06-26T05:59:13.014Z,41.50
2019-06-26T06:00:19.216Z,40.50
2019-06-26T06:01:24.282Z,40.40
2019-06-26T06:02:29.918Z,40.30
2019-06-26T06:03:34.930Z,40.20
2019-06-26T06:04:41.780Z,39.80
2019-06-26T06:05:46.888Z,39.00
2019-06-26T06:06:52.649Z,38.40
2019-06-26T06:07:57.799Z,38.10
2019-06-26T06:09:03.468Z,37.00
2019-06-26T06:10:08.783Z,36.10
2019-06-26T06:11:14.746Z,35.50
2019-06-26T06:12:19.825Z,35.00
2019-06-26T06:13:25.471Z,34.80
2019-06-26T06:14:30.481Z,34.30
2019-06-26T06:15:36.146Z,33.70
2019-06-26T06:16:47.342Z,32.80
2019-06-26T06:17:48.664Z,33.30
2019-06-26T06:18:53.725Z,32.60
2019-06-26T06:19:59.396Z,32.40
2019-06-26T06:21:04.540Z,32.20
2019-06-26T06:22:10.206Z,31.30
2019-06-26T06:23:15.369Z,31.30
2019-06-26T06:24:20.992Z,30.80
2019-06-26T06:25:26.031Z,30.90
2019-06-26T06:26:31.612Z,30.90
2019-06-26T06:27:36.728Z,30.40
2019-06-26T06:28:42.356Z,30.00
2019-06-26T06:29:47.395Z,29.70
2019-06-26T06:30:53.121Z,29.80
2019-06-26T06:31:58.186Z,29.90
2019-06-26T06:33:03.820Z,29.90
2019-06-26T06:34:08.839Z,29.80
2019-06-26T06:35:14.524Z,29.60
2019-06-26T06:36:19.552Z,30.00
2019-06-26T06:37:25.144Z,29.40
2019-06-26T06:38:30.217Z,29.10
2019-06-26T06:39:35.826Z,29.10
2019-06-26T06:40:40.963Z,28.70
2019-06-26T06:41:46.652Z,28.20
2019-06-26T06:42:51.832Z,28.40
2019-06-26T06:43:57.462Z,28.80
2019-06-26T06:45:02.485Z,28.40
2019-06-26T06:46:08.179Z,27.50
2019-06-26T06:47:14.301Z,27.50
2019-06-26T06:48:20.271Z,27.70
2019-06-26T06:49:25.321Z,27.30
2019-06-26T06:50:30.976Z,26.70
2019-06-26T06:51:36.084Z,27.20
2019-06-26T06:52:42.696Z,27.60
2019-06-26T06:53:47.701Z,27.30
2019-06-26T06:54:53.305Z,27.50
2019-06-26T06:55:58.400Z,26.90
2019-06-26T06:57:04.080Z,27.30
2019-06-26T06:58:09.174Z,27.20
2019-06-26T06:59:15.858Z,27.00
2019-06-26T07:00:21.173Z,27.20
2019-06-26T07:01:26.783Z,27.00
2019-06-26T07:02:31.825Z,26.90
2019-06-26T07:03:37.504Z,27.20
2019-06-26T07:04:42.611Z,26.80
2019-06-26T07:05:48.285Z,26.30
2019-06-26T07:06:53.400Z,26.10
2019-06-26T07:07:59.035Z,26.00
2019-06-26T07:09:05.193Z,26.00
2019-06-26T07:10:12.301Z,25.60
2019-06-26T07:11:17.397Z,25.70
2019-06-26T07:12:23.049Z,25.70
2019-06-26T07:13:28.293Z,25.30
2019-06-26T07:14:34.050Z,25.20
2019-06-26T07:15:39.162Z,25.10
2019-06-26T07:16:44.848Z,25.00
2019-06-26T07:17:49.908Z,24.60
2019-06-26T07:18:55.628Z,24.20
2019-06-26T07:20:00.766Z,24.20
2019-06-26T07:21:06.638Z,24.00
2019-06-26T07:22:11.845Z,23.80
2019-06-26T07:23:17.522Z,23.90
2019-06-26T07:24:22.619Z,24.00
2019-06-26T07:25:28.209Z,24.00
2019-06-26T07:26:33.254Z,24.20
2019-06-26T07:27:38.890Z,24.10
2019-06-26T07:28:43.892Z,23.80
2019-06-26T07:29:49.649Z,23.60
2019-06-26T07:30:54.677Z,23.90
2019-06-26T07:32:00.268Z,23.90
2019-06-26T07:33:05.469Z,23.70
2019-06-26T07:34:11.062Z,23.60
2019-06-26T07:35:16.212Z,23.30
2019-06-26T07:36:21.820Z,23.50
2019-06-26T07:37:26.816Z,23.20
2019-06-26T07:38:32.528Z,23.20
2019-06-26T07:39:37.622Z,23.20
2019-06-26T07:40:43.246Z,23.20
2019-06-26T07:41:48.335Z,23.00
2019-06-26T07:42:54.465Z,23.40
2019-06-26T07:43:59.533Z,23.90
2019-06-26T07:45:05.734Z,23.50
2019-06-26T07:46:10.781Z,23.80
2019-06-26T07:47:23.219Z,24.00
2019-06-26T07:48:23.121Z,24.30
2019-06-26T07:49:28.835Z,24.20
2019-06-26T07:50:33.819Z,23.50
2019-06-26T07:51:39.499Z,24.00
2019-06-26T07:52:44.514Z,23.90
2019-06-26T07:53:50.086Z,23.70
2019-06-26T07:54:55.205Z,23.90
2019-06-26T07:56:00.844Z,23.90
2019-06-26T07:57:06.019Z,24.20
2019-06-26T07:58:11.646Z,24.30
2019-06-26T07:59:16.818Z,24.20
2019-06-26T08:00:22.401Z,24.20
2019-06-26T08:01:27.491Z,24.10
2019-06-26T08:02:33.548Z,23.90
2019-06-26T08:03:38.626Z,23.40
2019-06-26T08:04:44.420Z,23.30
2019-06-26T08:05:49.463Z,23.10
2019-06-26T08:06:55.086Z,23.10
2019-06-26T08:08:00.149Z,22.80
2019-06-26T08:09:07.133Z,22.90
2019-06-26T08:10:12.774Z,23.10
2019-06-26T08:11:18.562Z,23.70
2019-06-26T08:12:23.663Z,23.20
2019-06-26T08:13:29.361Z,23.00
2019-06-26T08:14:34.454Z,23.60
2019-06-26T08:15:40.089Z,23.40
2019-06-26T08:16:45.193Z,23.30
2019-06-26T08:18:00.547Z,23.70
2019-06-26T08:18:57.571Z,23.60
2019-06-26T08:20:03.153Z,23.50
2019-06-26T08:21:12.453Z,23.40
2019-06-26T08:22:15.727Z,23.10
2019-06-26T08:23:20.794Z,22.50
2019-06-26T08:24:26.560Z,22.70
2019-06-26T08:25:31.586Z,23.40
2019-06-26T08:26:37.189Z,23.20
2019-06-26T08:27:42.369Z,23.40
2019-06-26T08:28:47.997Z,23.60
2019-06-26T08:29:53.096Z,23.40
2019-06-26T08:30:59.022Z,23.50
2019-06-26T08:32:04.216Z,23.60
2019-06-26T08:33:09.837Z,23.10
2019-06-26T08:34:15.272Z,23.20
2019-06-26T08:35:21.638Z,23.30
2019-06-26T08:36:27.037Z,23.50
2019-06-26T08:37:33.562Z,22.60
2019-06-26T08:38:39.771Z,22.30
2019-06-26T08:39:57.781Z,23.50
2019-06-26T08:41:06.814Z,23.50
2019-06-26T08:42:23.946Z,24.20
2019-06-26T08:43:31.476Z,24.70
2019-06-26T08:44:36.837Z,24.60
2019-06-26T08:45:41.861Z,24.40
2019-06-26T08:46:47.519Z,24.30
2019-06-26T08:47:52.545Z,24.30
2019-06-26T08:48:58.267Z,23.90
2019-06-26T08:50:03.345Z,23.60
2019-06-26T08:51:10.108Z,23.40
2019-06-26T08:52:15.796Z,23.30
2019-06-26T08:53:21.376Z,23.20
2019-06-26T08:54:26.602Z,23.20
2019-06-26T08:55:32.169Z,23.10
2019-06-26T08:56:37.246Z,22.80
2019-06-26T08:57:42.900Z,22.60
2019-06-26T08:58:47.950Z,22.50
2019-06-26T08:59:53.569Z,22.60
2019-06-26T09:00:58.762Z,22.50
2019-06-26T09:02:04.466Z,22.60
2019-06-26T09:03:09.570Z,22.60
2019-06-26T09:04:15.279Z,22.80
2019-06-26T09:05:20.802Z,22.50
2019-06-26T09:06:26.500Z,22.20
2019-06-26T09:07:31.593Z,22.10
2019-06-26T09:08:37.309Z,22.20
2019-06-26T09:09:42.363Z,22.20
2019-06-26T09:10:47.948Z,22.00
2019-06-26T09:11:54.058Z,21.90
2019-06-26T09:12:59.758Z,21.80
2019-06-26T09:14:06.197Z,22.00
2019-06-26T09:15:12.111Z,22.30
2019-06-26T09:16:17.194Z,22.40
2019-06-26T09:17:22.785Z,22.30
2019-06-26T09:18:35.430Z,22.10
2019-06-26T09:19:35.433Z,22.30
2019-06-26T09:20:40.944Z,22.40
2019-06-26T09:21:46.529Z,22.80
2019-06-26T09:22:51.621Z,22.60
2019-06-26T09:23:57.317Z,22.00
2019-06-26T09:25:19.862Z,22.30
2019-06-26T09:26:09.885Z,22.10
2019-06-26T09:27:15.360Z,22.20
2019-06-26T09:28:21.139Z,22.50
2019-06-26T09:29:26.181Z,22.20
2019-06-26T09:30:31.802Z,22.40
2019-06-26T09:31:36.853Z,22.50
2019-06-26T09:32:42.460Z,22.40
2019-06-26T09:33:47.561Z,22.80
2019-06-26T09:34:53.221Z,23.10
2019-06-26T09:35:58.270Z,23.20
2019-06-26T09:37:03.938Z,23.70
2019-06-26T09:38:09.075Z,24.30
2019-06-26T09:39:14.767Z,24.70
2019-06-26T09:40:19.766Z,24.60
2019-06-26T09:41:25.409Z,24.50
2019-06-26T09:42:30.633Z,24.90
2019-06-26T09:43:36.376Z,25.40
2019-06-26T09:44:41.770Z,24.40
2019-06-26T09:45:47.646Z,25.40
2019-06-26T09:46:52.748Z,25.40
2019-06-26T09:47:58.339Z,24.50
2019-06-26T09:49:04.651Z,25.20
2019-06-26T09:50:11.233Z,25.10
2019-06-26T09:51:16.270Z,25.10
2019-06-26T09:52:22.241Z,25.30
2019-06-26T09:53:27.245Z,25.00
2019-06-26T09:54:32.985Z,24.80
2019-06-26T09:55:38.109Z,24.50
2019-06-26T09:56:43.809Z,24.30
2019-06-26T09:57:48.815Z,23.30
2019-06-26T09:58:54.483Z,24.30
2019-06-26T09:59:59.591Z,24.70
2019-06-26T10:01:05.361Z,24.70
2019-06-26T10:02:10.404Z,24.30
2019-06-26T10:03:16.160Z,24.90
2019-06-26T10:04:21.154Z,24.90
2019-06-26T10:05:26.836Z,25.40
2019-06-26T10:06:31.893Z,25.20
2019-06-26T10:07:37.676Z,25.40
2019-06-26T10:08:42.707Z,24.80
2019-06-26T10:09:48.358Z,25.00
2019-06-26T10:10:53.377Z,25.20
2019-06-26T10:11:58.989Z,25.30
2019-06-26T10:13:04.054Z,26.10
2019-06-26T10:14:09.792Z,26.60
2019-06-26T10:15:15.037Z,25.90
2019-06-26T10:16:20.726Z,26.30
2019-06-26T10:17:25.732Z,25.50
2019-06-26T10:18:31.384Z,25.10
2019-06-26T10:19:36.660Z,25.20
2019-06-26T10:20:42.379Z,25.40
2019-06-26T10:21:47.560Z,24.50
2019-06-26T10:22:53.216Z,24.80
2019-06-26T10:23:58.281Z,25.10
2019-06-26T10:25:03.908Z,25.60
2019-06-26T10:26:08.931Z,25.90
2019-06-26T10:27:14.598Z,26.60
2019-06-26T10:28:20.277Z,26.70
2019-06-26T10:29:25.970Z,26.90
2019-06-26T10:30:31.003Z,26.90
2019-06-26T10:31:36.605Z,27.00
2019-06-26T10:32:41.646Z,26.90
2019-06-26T10:33:47.251Z,27.00
2019-06-26T10:34:52.884Z,27.30
2019-06-26T10:35:58.567Z,27.20
2019-06-26T10:37:03.669Z,27.30
2019-06-26T10:38:09.367Z,27.80
2019-06-26T10:39:14.429Z,27.50
2019-06-26T10:40:20.038Z,27.30
2019-06-26T10:41:25.065Z,27.30
2019-06-26T10:42:30.670Z,27.30
2019-06-26T10:43:35.842Z,27.90
2019-06-26T10:44:41.627Z,27.70
2019-06-26T10:45:46.702Z,27.80
2019-06-26T10:46:52.436Z,27.80
2019-06-26T10:47:57.562Z,28.10
2019-06-26T10:49:03.183Z,28.00
2019-06-26T10:50:08.191Z,28.90
2019-06-26T10:51:13.975Z,28.90
2019-06-26T10:52:19.049Z,29.50
2019-06-26T10:53:24.699Z,29.70
2019-06-26T10:54:30.809Z,30.30
2019-06-26T10:55:36.467Z,30.40
2019-06-26T10:56:41.586Z,30.50
2019-06-26T10:57:47.235Z,31.10
2019-06-26T10:58:53.304Z,31.40
2019-06-26T10:59:58.901Z,31.80
2019-06-26T11:01:03.980Z,31.70
2019-06-26T11:02:10.361Z,31.70
2019-06-26T11:03:15.499Z,31.90
2019-06-26T11:04:21.108Z,32.00
2019-06-26T11:05:26.135Z,33.10
2019-06-26T11:06:31.833Z,33.80
2019-06-26T11:07:36.900Z,34.50
2019-06-26T11:08:42.562Z,34.80
2019-06-26T11:09:47.664Z,35.70
2019-06-26T11:10:53.371Z,36.50
2019-06-26T11:11:58.466Z,35.60
2019-06-26T11:13:04.147Z,35.50
2019-06-26T11:14:10.258Z,36.40
2019-06-26T11:15:16.061Z,36.90
2019-06-26T11:16:21.257Z,37.30
2019-06-26T11:17:26.994Z,37.60
2019-06-26T11:18:32.011Z,38.70
2019-06-26T11:19:43.640Z,38.30
2019-06-26T11:20:44.402Z,38.30
2019-06-26T11:21:50.226Z,38.00
2019-06-26T11:22:55.274Z,37.70
2019-06-26T11:24:00.874Z,39.60
2019-06-26T11:25:06.828Z,40.90
2019-06-26T11:26:12.483Z,41.80
2019-06-26T11:27:17.533Z,42.00
2019-06-26T11:28:23.433Z,43.10
2019-06-26T11:29:28.784Z,44.60
2019-06-26T11:30:36.108Z,44.50
2019-06-26T11:31:41.186Z,43.20
2019-06-26T11:32:46.889Z,43.50
2019-06-26T11:33:51.937Z,42.60
2019-06-26T11:34:57.545Z,43.10
2019-06-26T11:36:02.554Z,42.80
2019-06-26T11:37:08.217Z,42.80
2019-06-26T11:38:13.289Z,43.50
2019-06-26T11:39:18.883Z,43.10
2019-06-26T11:40:23.925Z,44.70
2019-06-26T11:41:29.587Z,44.50
2019-06-26T11:42:34.727Z,44.20
2019-06-26T11:43:41.434Z,44.70
2019-06-26T11:44:46.521Z,47.80
2019-06-26T11:45:52.212Z,48.10
2019-06-26T11:46:57.797Z,45.80
2019-06-26T11:48:03.526Z,45.50
2019-06-26T11:49:08.672Z,45.00
2019-06-26T11:50:14.905Z,45.60
2019-06-26T11:51:20.015Z,46.60
2019-06-26T11:52:25.650Z,45.70
2019-06-26T11:53:30.753Z,45.70
2019-06-26T11:54:36.461Z,45.80
2019-06-26T11:55:41.589Z,45.60
2019-06-26T11:56:47.281Z,45.80
2019-06-26T11:57:52.436Z,45.80
2019-06-26T11:58:58.044Z,46.30
2019-06-26T12:00:03.198Z,47.00
2019-06-26T12:01:08.887Z,46.30
2019-06-26T12:02:14.065Z,46.50
2019-06-26T12:03:19.782Z,46.00
2019-06-26T12:04:24.880Z,45.90
2019-06-26T12:05:30.501Z,46.00
2019-06-26T12:06:35.584Z,46.20
2019-06-26T12:07:41.285Z,46.20
2019-06-26T12:08:46.327Z,46.60
2019-06-26T12:09:51.986Z,46.50
2019-06-26T12:10:57.108Z,46.70
2019-06-26T12:12:02.784Z,47.60
2019-06-26T12:13:07.885Z,47.20
2019-06-26T12:14:13.519Z,47.10
2019-06-26T12:15:19.773Z,47.70
2019-06-26T12:16:25.439Z,48.00
2019-06-26T12:17:30.570Z,48.90
2019-06-26T12:18:36.273Z,48.50
2019-06-26T12:19:41.382Z,48.80
2019-06-26T12:20:46.961Z,48.00
2019-06-26T12:21:52.386Z,47.60
2019-06-26T12:22:58.125Z,48.40
2019-06-26T12:24:03.293Z,47.80
2019-06-26T12:25:08.870Z,47.60
2019-06-26T12:26:14.972Z,48.80
2019-06-26T12:27:20.681Z,49.60
2019-06-26T12:28:25.774Z,49.00
2019-06-26T12:29:32.968Z,47.90
2019-06-26T12:30:38.453Z,48.30
2019-06-26T12:31:44.055Z,47.70
2019-06-26T12:33:02.123Z,48.30
2019-06-26T12:33:56.599Z,49.00
2019-06-26T12:35:02.042Z,49.70
2019-06-26T12:36:07.785Z,49.10
2019-06-26T12:37:13.092Z,47.10
2019-06-26T12:38:18.705Z,47.10
2019-06-26T12:39:23.895Z,46.50
2019-06-26T12:40:31.344Z,46.80
2019-06-26T12:41:36.206Z,46.40
2019-06-26T12:42:41.804Z,45.70
2019-06-26T12:43:46.909Z,45.10
2019-06-26T12:44:52.606Z,44.00
2019-06-26T12:45:57.836Z,43.40
2019-06-26T12:47:03.525Z,43.10
2019-06-26T12:48:08.556Z,43.00
2019-06-26T12:49:14.177Z,43.10
2019-06-26T12:50:34.745Z,43.00
2019-06-26T12:51:29.984Z,44.10
2019-06-26T12:52:35.038Z,44.60
2019-06-26T12:53:40.700Z,44.20
2019-06-26T12:54:45.864Z,44.50
2019-06-26T12:55:51.555Z,43.20
2019-06-26T12:56:56.675Z,43.10
2019-06-26T12:58:12.545Z,41.90
2019-06-26T12:59:09.109Z,41.10
2019-06-26T13:00:15.553Z,42.30
2019-06-26T13:01:20.796Z,42.90
2019-06-26T13:02:26.495Z,42.50
2019-06-26T13:03:31.648Z,41.90
2019-06-26T13:04:37.388Z,42.90
2019-06-26T13:05:42.698Z,43.40
2019-06-26T13:06:49.425Z,43.30
2019-06-26T13:07:54.422Z,43.50
2019-06-26T13:09:00.020Z,44.10
2019-06-26T13:10:07.578Z,45.10
2019-06-26T13:11:12.681Z,45.20
2019-06-26T13:12:17.695Z,43.90
2019-06-26T13:13:23.328Z,43.70
2019-06-26T13:14:29.339Z,44.30
2019-06-26T13:15:34.931Z,44.60
2019-06-26T13:16:40.133Z,44.90
2019-06-26T13:17:45.826Z,45.20
2019-06-26T13:18:50.914Z,45.30
2019-06-26T13:19:56.599Z,45.50
2019-06-26T13:21:05.077Z,45.20
2019-06-26T13:22:09.073Z,44.40
2019-06-26T13:23:14.979Z,45.10
2019-06-26T13:24:20.707Z,45.10
2019-06-26T13:25:25.828Z,45.40
2019-06-26T13:26:31.474Z,45.00
2019-06-26T13:27:36.607Z,45.20
2019-06-26T13:28:42.231Z,44.40
2019-06-26T13:29:47.302Z,44.40
2019-06-26T13:30:53.491Z,44.10
2019-06-26T13:31:58.849Z,43.90
2019-06-26T13:33:04.529Z,45.30
2019-06-26T13:34:09.829Z,45.50
2019-06-26T13:35:15.616Z,45.40
2019-06-26T13:36:20.712Z,44.20
2019-06-26T13:37:26.389Z,44.00
2019-06-26T13:38:32.617Z,45.30
2019-06-26T13:39:38.294Z,44.00
2019-06-26T13:40:43.448Z,43.70
2019-06-26T13:41:49.062Z,43.30
2019-06-26T13:42:54.188Z,45.00
2019-06-26T13:44:00.086Z,44.60
2019-06-26T13:45:06.052Z,44.00
2019-06-26T13:46:11.666Z,45.80
2019-06-26T13:47:16.689Z,44.10
2019-06-26T13:48:22.405Z,44.40
2019-06-26T13:49:27.486Z,44.40
2019-06-26T13:50:33.157Z,43.70
2019-06-26T13:51:38.702Z,44.60
2019-06-26T13:52:44.464Z,44.50
2019-06-26T13:53:49.618Z,45.80
2019-06-26T13:54:57.333Z,45.30
2019-06-26T13:56:02.108Z,44.90
2019-06-26T13:57:07.716Z,45.50
2019-06-26T13:58:12.793Z,44.80
2019-06-26T13:59:18.480Z,44.40
2019-06-26T14:00:23.694Z,45.10
2019-06-26T14:01:29.372Z,44.80
2019-06-26T14:02:35.541Z,43.70
2019-06-26T14:03:42.279Z,43.10
2019-06-26T14:04:47.334Z,43.50
2019-06-26T14:05:53.032Z,43.10
2019-06-26T14:06:58.117Z,44.30
2019-06-26T14:08:03.715Z,44.80
2019-06-26T14:09:08.915Z,45.40
2019-06-26T14:10:15.028Z,45.60
2019-06-26T14:11:20.273Z,45.90
2019-06-26T14:12:26.014Z,44.70
2019-06-26T14:13:31.153Z,44.50
2019-06-26T14:14:52.549Z,45.70
2019-06-26T14:15:43.464Z,46.60
2019-06-26T14:16:49.165Z,44.60
2019-06-26T14:17:54.284Z,44.10
2019-06-26T14:18:59.955Z,44.00
2019-06-26T14:20:05.192Z,43.70
2019-06-26T14:21:24.482Z,44.50
2019-06-26T14:22:17.564Z,45.00
2019-06-26T14:23:23.349Z,44.30
2019-06-26T14:24:28.471Z,43.90
2019-06-26T14:25:34.226Z,43.30
2019-06-26T14:26:39.297Z,44.50
2019-06-26T14:27:44.992Z,44.20
2019-06-26T14:28:53.012Z,45.10
2019-06-26T14:29:57.606Z,45.70
2019-06-26T14:31:02.897Z,45.80
2019-06-26T14:32:08.501Z,45.90
2019-06-26T14:33:13.591Z,45.80
2019-06-26T14:34:19.266Z,45.60
2019-06-26T14:35:24.415Z,43.60
2019-06-26T14:36:30.065Z,43.60
2019-06-26T14:37:35.067Z,44.80
2019-06-26T14:38:40.857Z,44.90
2019-06-26T14:39:45.972Z,45.30
2019-06-26T14:40:51.582Z,44.20
2019-06-26T14:41:56.961Z,43.90
2019-06-26T14:43:02.548Z,43.70
2019-06-26T14:44:07.582Z,43.50
2019-06-26T14:45:13.574Z,43.60
2019-06-26T14:46:18.672Z,43.80
2019-06-26T14:47:25.357Z,43.30
2019-06-26T14:48:30.502Z,42.40
2019-06-26T14:49:36.059Z,42.30
2019-06-26T14:50:41.079Z,44.00
2019-06-26T14:51:47.861Z,44.60
2019-06-26T14:52:53.168Z,43.20
2019-06-26T14:53:58.857Z,45.90
2019-06-26T14:55:04.070Z,45.30
2019-06-26T14:56:09.672Z,45.60
2019-06-26T14:57:14.788Z,45.30
2019-06-26T14:58:20.494Z,45.20
2019-06-26T14:59:25.592Z,45.00
2019-06-26T15:00:31.252Z,44.50
2019-06-26T15:01:36.257Z,46.10
2019-06-26T15:02:42.846Z,47.70
2019-06-26T15:03:47.916Z,47.60
2019-06-26T15:04:53.608Z,45.90
2019-06-26T15:06:12.283Z,45.10
2019-06-26T15:07:05.876Z,44.80
2019-06-26T15:08:10.914Z,45.50
2019-06-26T15:09:16.516Z,44.80
2019-06-26T15:10:21.796Z,44.10
2019-06-26T15:11:27.464Z,44.40
2019-06-26T15:12:32.593Z,44.20
2019-06-26T15:13:38.288Z,44.80
2019-06-26T15:14:43.296Z,45.70
2019-06-26T15:15:48.970Z,46.70
2019-06-26T15:16:55.043Z,47.50
2019-06-26T15:18:00.643Z,48.20
2019-06-26T15:19:05.753Z,47.10
2019-06-26T15:20:11.530Z,46.60
2019-06-26T15:21:16.685Z,47.20
2019-06-26T15:22:22.363Z,45.90
2019-06-26T15:23:27.394Z,46.30
2019-06-26T15:24:33.008Z,46.10
2019-06-26T15:25:38.268Z,46.40
2019-06-26T15:26:43.846Z,46.50
2019-06-26T15:27:49.006Z,47.20
2019-06-26T15:28:54.668Z,46.80
2019-06-26T15:29:59.980Z,47.50
2019-06-26T15:31:05.635Z,46.60
2019-06-26T15:32:10.687Z,47.10
2019-06-26T15:33:16.336Z,46.90
2019-06-26T15:34:21.437Z,46.80
2019-06-26T15:35:27.141Z,47.10
2019-06-26T15:36:32.225Z,46.80
2019-06-26T15:37:37.951Z,46.60
2019-06-26T15:38:43.016Z,46.70
2019-06-26T15:39:48.585Z,46.20
2019-06-26T15:40:54.677Z,46.30
2019-06-26T15:42:00.692Z,46.70
2019-06-26T15:43:05.892Z,47.70
2019-06-26T15:44:11.562Z,47.90
2019-06-26T15:45:20.418Z,48.60
2019-06-26T15:46:24.203Z,49.00
2019-06-26T15:47:29.234Z,48.30
2019-06-26T15:48:34.923Z,48.40
2019-06-26T15:49:39.985Z,47.80
2019-06-26T15:50:45.669Z,47.90
2019-06-26T15:51:50.844Z,47.90
2019-06-26T15:52:56.417Z,48.90
2019-06-26T15:54:01.453Z,48.40
2019-06-26T15:55:07.265Z,48.00
2019-06-26T15:56:12.398Z,48.00
2019-06-26T15:57:17.993Z,47.30
2019-06-26T15:58:23.101Z,47.40
2019-06-26T15:59:31.002Z,47.50
2019-06-26T16:00:35.521Z,47.60
2019-06-26T16:01:41.320Z,48.10
2019-06-26T16:02:46.414Z,47.90
2019-06-26T16:03:52.022Z,47.70
2019-06-26T16:04:57.146Z,47.90
2019-06-26T16:06:02.766Z,47.70
2019-06-26T16:07:07.921Z,48.30
2019-06-26T16:08:13.649Z,48.10
2019-06-26T16:09:18.702Z,48.60
2019-06-26T16:10:24.352Z,48.10
2019-06-26T16:11:29.433Z,48.50
2019-06-26T16:12:35.032Z,48.90
2019-06-26T16:13:40.100Z,49.70
2019-06-26T16:14:45.811Z,49.60
2019-06-26T16:15:50.939Z,49.80
2019-06-26T16:16:58.924Z,50.50
2019-06-26T16:18:18.141Z,50.30
2019-06-26T16:19:24.030Z,50.70
2019-06-26T16:20:29.128Z,51.00
2019-06-26T16:21:34.774Z,51.20
2019-06-26T16:22:39.858Z,51.40
2019-06-26T16:23:46.594Z,51.10
2019-06-26T16:24:51.714Z,51.70
2019-06-26T16:25:57.389Z,51.60
2019-06-26T16:27:02.428Z,51.40
2019-06-26T16:28:08.024Z,51.90
2019-06-26T16:29:13.141Z,52.10
2019-06-26T16:30:18.940Z,52.60
2019-06-26T16:31:24.022Z,52.30
2019-06-26T16:32:29.686Z,52.30
2019-06-26T16:33:34.845Z,53.10
2019-06-26T16:34:40.548Z,52.90
2019-06-26T16:35:45.636Z,52.40
2019-06-26T16:36:51.299Z,52.40
2019-06-26T16:37:56.405Z,52.40
2019-06-26T16:39:03.145Z,52.50
2019-06-26T16:40:09.311Z,52.80
2019-06-26T16:41:14.954Z,53.30
2019-06-26T16:42:20.017Z,53.30
2019-06-26T16:43:25.716Z,53.40
2019-06-26T16:44:30.823Z,53.50
2019-06-26T16:45:36.551Z,53.30
2019-06-26T16:46:44.388Z,53.40
2019-06-26T16:47:50.067Z,53.70
2019-06-26T16:48:55.079Z,54.20
2019-06-26T16:50:00.694Z,54.30
2019-06-26T16:51:05.804Z,54.10
2019-06-26T16:52:11.650Z,53.50
2019-06-26T16:53:16.800Z,53.90
2019-06-26T16:54:23.643Z,54.40
2019-06-26T16:55:28.794Z,54.60
2019-06-26T16:56:34.490Z,54.50
2019-06-26T16:57:40.622Z,54.00
2019-06-26T16:58:46.221Z,54.10
2019-06-26T16:59:51.224Z,54.40
2019-06-26T17:00:56.976Z,54.60
2019-06-26T17:02:02.072Z,54.00
2019-06-26T17:03:07.767Z,54.00
2019-06-26T17:04:13.129Z,54.10
2019-06-26T17:05:18.891Z,53.60
2019-06-26T17:06:23.999Z,54.10
2019-06-26T17:07:30.682Z,53.90
2019-06-26T17:08:35.768Z,54.00
2019-06-26T17:09:44.363Z,53.70
2019-06-26T17:10:48.213Z,53.80
2019-06-26T17:11:53.926Z,54.10
2019-06-26T17:12:59.085Z,54.10
2019-06-26T17:14:05.177Z,53.30
2019-06-26T17:15:10.778Z,53.30
2019-06-26T17:16:16.428Z,53.50
2019-06-26T17:17:21.519Z,53.60
2019-06-26T17:18:28.333Z,54.60
2019-06-26T17:19:33.417Z,54.40
2019-06-26T17:20:39.018Z,54.20
2019-06-26T17:21:44.497Z,54.70
2019-06-26T17:23:04.444Z,54.20
2019-06-26T17:23:57.009Z,54.20
2019-06-26T17:25:02.695Z,54.00
2019-06-26T17:26:07.836Z,54.10
2019-06-26T17:27:13.453Z,53.90
2019-06-26T17:28:18.557Z,54.10
2019-06-26T17:29:24.269Z,54.40
2019-06-26T17:30:29.359Z,54.40
2019-06-26T17:31:34.978Z,54.10
2019-06-26T17:32:40.004Z,53.90
2019-06-26T17:33:45.601Z,53.60
2019-06-26T17:34:52.494Z,54.70
2019-06-26T17:35:58.165Z,54.20
2019-06-26T17:37:03.200Z,54.70
2019-06-26T17:38:08.853Z,54.70
2019-06-26T17:39:13.918Z,54.40
2019-06-26T17:40:19.587Z,53.80
2019-06-26T17:41:24.742Z,54.00
2019-06-26T17:42:30.501Z,53.70
2019-06-26T17:43:35.602Z,54.00
2019-06-26T17:44:41.206Z,53.90
2019-06-26T17:45:46.289Z,54.10
2019-06-26T17:46:51.892Z,54.10
2019-06-26T17:47:56.907Z,54.40
2019-06-26T17:49:02.937Z,54.20
2019-06-26T17:50:08.977Z,54.60
2019-06-26T17:51:15.152Z,53.70
2019-06-26T17:52:20.282Z,53.40
2019-06-26T17:53:26.016Z,53.30
2019-06-26T17:54:31.058Z,53.60
2019-06-26T17:55:36.759Z,53.40
2019-06-26T17:56:41.838Z,53.10
2019-06-26T17:57:47.785Z,53.20
2019-06-26T17:58:53.036Z,53.60
2019-06-26T17:59:58.701Z,53.80
2019-06-26T18:01:03.888Z,54.00
2019-06-26T18:02:09.586Z,54.00
2019-06-26T18:03:14.692Z,54.40
2019-06-26T18:04:20.290Z,53.80
2019-06-26T18:05:25.331Z,53.70